sensor_id;sensor_type;location;lat;lon;timestamp;pressure;altitude;pressure_sealevel;temperature;humidity
42591;BME280;28218;53.342;-6.216;2024-01-30T00:01:46;102294.38;;;5.36;100.00
42591;BME280;28218;53.342;-6.216;2024-01-30T00:04:14;102304.84;;;5.36;100.00
42591;BME280;28218;53.342;-6.216;2024-01-30T00:06:43;102294.47;;;5.35;100.00
42591;BME280;28218;53.342;-6.216;2024-01-30T00:09:13;102284.94;;;5.34;100.00
42591;BME280;28218;53.342;-6.216;2024-01-30T00:11:42;102299.31;;;5.27;100.00
42591;BME280;28218;53.342;-6.216;2024-01-30T00:14:10;102300.75;;;5.32;100.00
42591;BME280;28218;53.342;-6.216;2024-01-30T00:16:38;102297.19;;;5.33;100.00
42591;BME280;28218;53.342;-6.216;2024-01-30T00:19:06;102296.44;;;5.31;100.00
42591;BME280;28218;53.342;-6.216;2024-01-30T00:21:35;102308.75;;;5.29;100.00
42591;BME280;28218;53.342;-6.216;2024-01-30T00:24:04;102312.31;;;5.28;100.00
42591;BME280;28218;53.342;-6.216;2024-01-30T00:26:33;102315.66;;;5.30;100.00
42591;BME280;28218;53.342;-6.216;2024-01-30T00:29:02;102320.34;;;5.25;100.00
42591;BME280;28218;53.342;-6.216;2024-01-30T00:31:30;102316.06;;;5.24;100.00
42591;BME280;28218;53.342;-6.216;2024-01-30T00:33:58;102309.03;;;5.25;100.00
42591;BME280;28218;53.342;-6.216;2024-01-30T00:36:27;102311.75;;;5.23;100.00
42591;BME280;28218;53.342;-6.216;2024-01-30T00:38:57;102323.78;;;5.26;100.00
42591;BME280;28218;53.342;-6.216;2024-01-30T00:41:25;102324.72;;;5.25;100.00
42591;BME280;28218;53.342;-6.216;2024-01-30T00:43:55;102325.78;;;5.22;100.00
42591;BME280;28218;53.342;-6.216;2024-01-30T00:46:23;102321.38;;;5.23;100.00
42591;BME280;28218;53.342;-6.216;2024-01-30T00:48:51;102321.56;;;5.20;100.00
42591;BME280;28218;53.342;-6.216;2024-01-30T00:51:20;102325.00;;;5.20;100.00
42591;BME280;28218;53.342;-6.216;2024-01-30T00:53:48;102340.78;;;5.19;100.00
42591;BME280;28218;53.342;-6.216;2024-01-30T00:56:16;102335.56;;;5.19;100.00
42591;BME280;28218;53.342;-6.216;2024-01-30T00:58:45;102339.97;;;5.18;100.00
42591;BME280;28218;53.342;-6.216;2024-01-30T01:01:15;102341.81;;;5.16;100.00
42591;BME280;28218;53.342;-6.216;2024-01-30T01:03:43;102345.34;;;5.15;100.00
42591;BME280;28218;53.342;-6.216;2024-01-30T01:06:12;102347.13;;;5.15;100.00
42591;BME280;28218;53.342;-6.216;2024-01-30T01:08:40;102341.13;;;5.12;100.00
42591;BME280;28218;53.342;-6.216;2024-01-30T01:11:08;102356.25;;;5.07;100.00
42591;BME280;28218;53.342;-6.216;2024-01-30T01:13:36;102341.53;;;5.06;100.00
42591;BME280;28218;53.342;-6.216;2024-01-30T01:16:05;102353.00;;;5.04;100.00
42591;BME280;28218;53.342;-6.216;2024-01-30T01:18:35;102354.84;;;5.02;100.00
42591;BME280;28218;53.342;-6.216;2024-01-30T01:21:03;102361.75;;;5.03;100.00
42591;BME280;28218;53.342;-6.216;2024-01-30T01:23:32;102370.91;;;4.96;100.00
42591;BME280;28218;53.342;-6.216;2024-01-30T01:26:00;102370.25;;;4.92;100.00
42591;BME280;28218;53.342;-6.216;2024-01-30T01:28:28;102372.03;;;4.92;100.00
42591;BME280;28218;53.342;-6.216;2024-01-30T01:30:56;102367.75;;;4.91;100.00
42591;BME280;28218;53.342;-6.216;2024-01-30T01:33:32;102376.56;;;4.88;100.00
42591;BME280;28218;53.342;-6.216;2024-01-30T01:36:03;102375.00;;;4.85;100.00
42591;BME280;28218;53.342;-6.216;2024-01-30T01:38:31;102383.09;;;4.81;100.00
42591;BME280;28218;53.342;-6.216;2024-01-30T01:40:59;102379.56;;;4.82;100.00
42591;BME280;28218;53.342;-6.216;2024-01-30T01:43:27;102378.72;;;4.81;100.00
42591;BME280;28218;53.342;-6.216;2024-01-30T01:45:56;102380.66;;;4.78;100.00
42591;BME280;28218;53.342;-6.216;2024-01-30T01:48:26;102380.75;;;4.76;100.00
42591;BME280;28218;53.342;-6.216;2024-01-30T01:50:54;102380.00;;;4.74;100.00
42591;BME280;28218;53.342;-6.216;2024-01-30T01:53:24;102383.72;;;4.70;100.00
42591;BME280;28218;53.342;-6.216;2024-01-30T01:55:54;102395.09;;;4.69;100.00
42591;BME280;28218;53.342;-6.216;2024-01-30T01:58:24;102390.81;;;4.68;100.00
42591;BME280;28218;53.342;-6.216;2024-01-30T02:00:56;102392.69;;;4.66;100.00
42591;BME280;28218;53.342;-6.216;2024-01-30T02:03:25;102397.13;;;4.64;100.00
42591;BME280;28218;53.342;-6.216;2024-01-30T02:05:53;102400.78;;;4.61;100.00
42591;BME280;28218;53.342;-6.216;2024-01-30T02:08:24;102405.22;;;4.59;100.00
42591;BME280;28218;53.342;-6.216;2024-01-30T02:10:52;102405.22;;;4.59;100.00
42591;BME280;28218;53.342;-6.216;2024-01-30T02:13:21;102408.94;;;4.55;100.00
42591;BME280;28218;53.342;-6.216;2024-01-30T02:15:50;102406.31;;;4.55;100.00
42591;BME280;28218;53.342;-6.216;2024-01-30T02:18:19;102400.28;;;4.55;100.00
42591;BME280;28218;53.342;-6.216;2024-01-30T02:20:48;102413.31;;;4.55;100.00
42591;BME280;28218;53.342;-6.216;2024-01-30T02:23:19;102419.47;;;4.54;100.00
42591;BME280;28218;53.342;-6.216;2024-01-30T02:25:48;102430.84;;;4.53;100.00
42591;BME280;28218;53.342;-6.216;2024-01-30T02:28:16;102429.25;;;4.50;100.00
42591;BME280;28218;53.342;-6.216;2024-01-30T02:30:45;102436.34;;;4.48;100.00
42591;BME280;28218;53.342;-6.216;2024-01-30T02:33:13;102438.09;;;4.48;100.00
42591;BME280;28218;53.342;-6.216;2024-01-30T02:35:42;102428.56;;;4.47;100.00
42591;BME280;28218;53.342;-6.216;2024-01-30T02:38:10;102434.72;;;4.46;100.00
42591;BME280;28218;53.342;-6.216;2024-01-30T02:40:40;102436.41;;;4.47;100.00
42591;BME280;28218;53.342;-6.216;2024-01-30T02:43:08;102431.19;;;4.47;100.00
42591;BME280;28218;53.342;-6.216;2024-01-30T02:45:36;102438.38;;;4.43;100.00
42591;BME280;28218;53.342;-6.216;2024-01-30T02:48:05;102441.88;;;4.42;100.00
42591;BME280;28218;53.342;-6.216;2024-01-30T02:50:34;102449.91;;;4.39;100.00
42591;BME280;28218;53.342;-6.216;2024-01-30T02:53:02;102451.56;;;4.40;100.00
42591;BME280;28218;53.342;-6.216;2024-01-30T02:55:31;102457.06;;;4.35;100.00
42591;BME280;28218;53.342;-6.216;2024-01-30T02:58:00;102457.16;;;4.34;100.00
42591;BME280;28218;53.342;-6.216;2024-01-30T03:00:29;102452.78;;;4.34;100.00
42591;BME280;28218;53.342;-6.216;2024-01-30T03:02:57;102458.09;;;4.33;100.00
42591;BME280;28218;53.342;-6.216;2024-01-30T03:05:26;102461.59;;;4.32;100.00
42591;BME280;28218;53.342;-6.216;2024-01-30T03:07:54;102459.91;;;4.31;100.00
42591;BME280;28218;53.342;-6.216;2024-01-30T03:10:22;102462.63;;;4.29;100.00
42591;BME280;28218;53.342;-6.216;2024-01-30T03:12:51;102463.56;;;4.28;100.00
42591;BME280;28218;53.342;-6.216;2024-01-30T03:15:20;102461.69;;;4.30;100.00
42591;BME280;28218;53.342;-6.216;2024-01-30T03:17:49;102454.94;;;4.26;100.00
42591;BME280;28218;53.342;-6.216;2024-01-30T03:20:18;102467.91;;;4.28;100.00
42591;BME280;28218;53.342;-6.216;2024-01-30T03:22:46;102475.97;;;4.23;100.00
42591;BME280;28218;53.342;-6.216;2024-01-30T03:25:14;102472.47;;;4.24;100.00
42591;BME280;28218;53.342;-6.216;2024-01-30T03:27:42;102470.78;;;4.23;100.00
42591;BME280;28218;53.342;-6.216;2024-01-30T03:30:11;102480.31;;;4.24;100.00
42591;BME280;28218;53.342;-6.216;2024-01-30T03:32:39;102481.97;;;4.25;100.00
42591;BME280;28218;53.342;-6.216;2024-01-30T03:35:08;102490.75;;;4.24;100.00
42591;BME280;28218;53.342;-6.216;2024-01-30T03:37:37;102487.53;;;4.19;100.00
42591;BME280;28218;53.342;-6.216;2024-01-30T03:40:06;102488.44;;;4.18;100.00
42591;BME280;28218;53.342;-6.216;2024-01-30T03:42:34;102498.13;;;4.16;100.00
42591;BME280;28218;53.342;-6.216;2024-01-30T03:45:03;102505.03;;;4.17;100.00
42591;BME280;28218;53.342;-6.216;2024-01-30T03:47:31;102499.72;;;4.19;100.00
42591;BME280;28218;53.342;-6.216;2024-01-30T03:50:01;102503.19;;;4.19;100.00
42591;BME280;28218;53.342;-6.216;2024-01-30T03:52:31;102505.81;;;4.19;100.00
42591;BME280;28218;53.342;-6.216;2024-01-30T03:55:00;102507.63;;;4.17;100.00
42591;BME280;28218;53.342;-6.216;2024-01-30T03:57:28;102507.72;;;4.16;100.00
42591;BME280;28218;53.342;-6.216;2024-01-30T03:59:56;102506.72;;;4.18;100.00
42591;BME280;28218;53.342;-6.216;2024-01-30T04:02:28;102513.78;;;4.16;100.00
42591;BME280;28218;53.342;-6.216;2024-01-30T04:04:57;102526.84;;;4.16;100.00
42591;BME280;28218;53.342;-6.216;2024-01-30T04:07:27;102522.59;;;4.14;100.00
42591;BME280;28218;53.342;-6.216;2024-01-30T04:09:56;102534.16;;;4.09;100.00
42591;BME280;28218;53.342;-6.216;2024-01-30T04:12:24;102540.38;;;4.07;100.00
42591;BME280;28218;53.342;-6.216;2024-01-30T04:14:52;102539.53;;;4.06;100.00
42591;BME280;28218;53.342;-6.216;2024-01-30T04:17:20;102543.91;;;4.06;100.00
42591;BME280;28218;53.342;-6.216;2024-01-30T04:19:48;102547.50;;;4.03;100.00
42591;BME280;28218;53.342;-6.216;2024-01-30T04:22:17;102550.06;;;4.05;100.00
42591;BME280;28218;53.342;-6.216;2024-01-30T04:24:47;102553.41;;;4.07;100.00
42591;BME280;28218;53.342;-6.216;2024-01-30T04:27:15;102556.16;;;4.04;100.00
42591;BME280;28218;53.342;-6.216;2024-01-30T04:29:43;102559.72;;;4.03;100.00
42591;BME280;28218;53.342;-6.216;2024-01-30T04:32:11;102565.72;;;4.05;100.00
42591;BME280;28218;53.342;-6.216;2024-01-30T04:34:39;102569.53;;;3.98;100.00
42591;BME280;28218;53.342;-6.216;2024-01-30T04:37:08;102570.47;;;3.97;100.00
42591;BME280;28218;53.342;-6.216;2024-01-30T04:39:36;102574.00;;;3.96;100.00
42591;BME280;28218;53.342;-6.216;2024-01-30T04:42:06;102574.25;;;3.91;100.00
42591;BME280;28218;53.342;-6.216;2024-01-30T04:44:35;102580.31;;;3.92;100.00
42591;BME280;28218;53.342;-6.216;2024-01-30T04:47:04;102589.19;;;3.88;100.00
42591;BME280;28218;53.342;-6.216;2024-01-30T04:49:35;102583.16;;;3.87;100.00
42591;BME280;28218;53.342;-6.216;2024-01-30T04:52:04;102590.13;;;3.87;100.00
42591;BME280;28218;53.342;-6.216;2024-01-30T04:54:32;102590.88;;;3.89;100.00
42591;BME280;28218;53.342;-6.216;2024-01-30T04:57:01;102589.19;;;3.88;100.00
42591;BME280;28218;53.342;-6.216;2024-01-30T04:59:31;102594.50;;;3.86;100.00
42591;BME280;28218;53.342;-6.216;2024-01-30T05:01:59;102591.91;;;3.86;100.00
42591;BME280;28218;53.342;-6.216;2024-01-30T05:04:27;102597.13;;;3.86;100.00
42591;BME280;28218;53.342;-6.216;2024-01-30T05:06:56;102598.78;;;3.87;100.00
42591;BME280;28218;53.342;-6.216;2024-01-30T05:09:24;102601.63;;;3.82;100.00
42591;BME280;28218;53.342;-6.216;2024-01-30T05:11:52;102609.22;;;3.87;100.00
42591;BME280;28218;53.342;-6.216;2024-01-30T05:14:20;102605.09;;;3.83;100.00
42591;BME280;28218;53.342;-6.216;2024-01-30T05:16:50;102605.19;;;3.81;100.00
42591;BME280;28218;53.342;-6.216;2024-01-30T05:19:18;102607.94;;;3.78;100.00
42591;BME280;28218;53.342;-6.216;2024-01-30T05:21:47;102614.81;;;3.79;100.00
42591;BME280;28218;53.342;-6.216;2024-01-30T05:24:15;102622.66;;;3.79;100.00
42591;BME280;28218;53.342;-6.216;2024-01-30T05:26:46;102621.09;;;3.75;100.00
42591;BME280;28218;53.342;-6.216;2024-01-30T05:29:15;102633.16;;;3.78;100.00
42591;BME280;28218;53.342;-6.216;2024-01-30T05:31:43;102640.16;;;3.77;100.00
42591;BME280;28218;53.342;-6.216;2024-01-30T05:34:13;102638.38;;;3.78;100.00
42591;BME280;28218;53.342;-6.216;2024-01-30T05:36:41;102643.50;;;3.79;100.00
42591;BME280;28218;53.342;-6.216;2024-01-30T05:39:09;102643.66;;;3.76;100.00
42591;BME280;28218;53.342;-6.216;2024-01-30T05:41:38;102649.66;;;3.78;100.00
42591;BME280;28218;53.342;-6.216;2024-01-30T05:44:06;102645.34;;;3.77;100.00
42591;BME280;28218;53.342;-6.216;2024-01-30T05:46:35;102655.94;;;3.74;100.00
42591;BME280;28218;53.342;-6.216;2024-01-30T05:49:03;102644.66;;;3.74;100.00
42591;BME280;28218;53.342;-6.216;2024-01-30T05:51:34;102645.41;;;3.76;100.00
42591;BME280;28218;53.342;-6.216;2024-01-30T05:54:02;102654.16;;;3.75;100.00
42591;BME280;28218;53.342;-6.216;2024-01-30T05:56:31;102655.84;;;3.76;100.00
42591;BME280;28218;53.342;-6.216;2024-01-30T05:58:59;102656.84;;;3.73;100.00
42591;BME280;28218;53.342;-6.216;2024-01-30T06:01:27;102666.34;;;3.74;100.00
42591;BME280;28218;53.342;-6.216;2024-01-30T06:03:56;102669.91;;;3.73;100.00
42591;BME280;28218;53.342;-6.216;2024-01-30T06:06:24;102678.66;;;3.72;100.00
42591;BME280;28218;53.342;-6.216;2024-01-30T06:08:54;102686.47;;;3.72;100.00
42591;BME280;28218;53.342;-6.216;2024-01-30T06:11:23;102688.06;;;3.75;100.00
42591;BME280;28218;53.342;-6.216;2024-01-30T06:13:52;102689.69;;;3.77;100.00
42591;BME280;28218;53.342;-6.216;2024-01-30T06:16:20;102691.50;;;3.75;100.00
42591;BME280;28218;53.342;-6.216;2024-01-30T06:18:49;102693.19;;;3.76;100.00
42591;BME280;28218;53.342;-6.216;2024-01-30T06:21:18;102684.47;;;3.77;100.00
42591;BME280;28218;53.342;-6.216;2024-01-30T06:23:46;102696.59;;;3.78;100.00
42591;BME280;28218;53.342;-6.216;2024-01-30T06:26:16;102699.28;;;3.77;100.00
42591;BME280;28218;53.342;-6.216;2024-01-30T06:28:44;102706.41;;;3.73;100.00
42591;BME280;28218;53.342;-6.216;2024-01-30T06:31:12;102706.47;;;3.72;100.00
42591;BME280;28218;53.342;-6.216;2024-01-30T06:33:41;102709.22;;;3.69;100.00
42591;BME280;28218;53.342;-6.216;2024-01-30T06:36:09;102712.69;;;3.69;100.00
42591;BME280;28218;53.342;-6.216;2024-01-30T06:38:38;102723.09;;;3.69;100.00
42591;BME280;28218;53.342;-6.216;2024-01-30T06:41:06;102726.56;;;3.70;100.00
42591;BME280;28218;53.342;-6.216;2024-01-30T06:43:35;102725.63;;;3.71;100.00
42591;BME280;28218;53.342;-6.216;2024-01-30T06:46:04;102722.19;;;3.70;100.00
42591;BME280;28218;53.342;-6.216;2024-01-30T06:48:32;102720.50;;;3.69;100.00
42591;BME280;28218;53.342;-6.216;2024-01-30T06:51:00;102727.56;;;3.67;100.00
42591;BME280;28218;53.342;-6.216;2024-01-30T06:53:28;102738.00;;;3.67;100.00
42591;BME280;28218;53.342;-6.216;2024-01-30T06:55:57;102735.53;;;3.64;100.00
42591;BME280;28218;53.342;-6.216;2024-01-30T06:58:25;102738.97;;;3.65;100.00
42591;BME280;28218;53.342;-6.216;2024-01-30T07:00:55;102747.53;;;3.67;100.00
42591;BME280;28218;53.342;-6.216;2024-01-30T07:03:24;102750.31;;;3.64;100.00
42591;BME280;28218;53.342;-6.216;2024-01-30T07:05:52;102752.00;;;3.65;100.00
42591;BME280;28218;53.342;-6.216;2024-01-30T07:08:20;102754.59;;;3.65;100.00
42591;BME280;28218;53.342;-6.216;2024-01-30T07:10:49;102765.88;;;3.65;100.00
42591;BME280;28218;53.342;-6.216;2024-01-30T07:13:17;102767.56;;;3.66;100.00
42591;BME280;28218;53.342;-6.216;2024-01-30T07:15:45;102766.72;;;3.66;100.00
42591;BME280;28218;53.342;-6.216;2024-01-30T07:18:15;102767.50;;;3.68;100.00
42591;BME280;28218;53.342;-6.216;2024-01-30T07:20:44;102774.31;;;3.70;100.00
42591;BME280;28218;53.342;-6.216;2024-01-30T07:23:14;102774.31;;;3.70;100.00
42591;BME280;28218;53.342;-6.216;2024-01-30T07:25:44;102777.84;;;3.69;100.00
42591;BME280;28218;53.342;-6.216;2024-01-30T07:28:15;102777.78;;;3.71;100.00
42591;BME280;28218;53.342;-6.216;2024-01-30T07:30:45;102774.31;;;3.70;100.00
42591;BME280;28218;53.342;-6.216;2024-01-30T07:33:15;102769.28;;;3.67;100.00
42591;BME280;28218;53.342;-6.216;2024-01-30T07:35:45;102777.00;;;3.69;100.00
42591;BME280;28218;53.342;-6.216;2024-01-30T07:38:13;102781.38;;;3.68;100.00
42591;BME280;28218;53.342;-6.216;2024-01-30T07:40:42;102785.75;;;3.68;100.00
42591;BME280;28218;53.342;-6.216;2024-01-30T07:43:10;102787.53;;;3.67;100.00
42591;BME280;28218;53.342;-6.216;2024-01-30T07:45:38;102802.25;;;3.68;100.00
42591;BME280;28218;53.342;-6.216;2024-01-30T07:48:06;102809.97;;;3.70;100.00
42591;BME280;28218;53.342;-6.216;2024-01-30T07:50:36;102807.47;;;3.68;100.00
42591;BME280;28218;53.342;-6.216;2024-01-30T07:53:05;102815.28;;;3.68;100.00
42591;BME280;28218;53.342;-6.216;2024-01-30T07:55:33;102815.19;;;3.70;100.00
42591;BME280;28218;53.342;-6.216;2024-01-30T07:58:01;102812.50;;;3.71;100.00
42591;BME280;28218;53.342;-6.216;2024-01-30T08:00:31;102815.06;;;3.73;100.00
42591;BME280;28218;53.342;-6.216;2024-01-30T08:02:59;102821.13;;;3.73;100.00
42591;BME280;28218;53.342;-6.216;2024-01-30T08:05:27;102825.41;;;3.74;100.00
42591;BME280;28218;53.342;-6.216;2024-01-30T08:07:57;102820.94;;;3.76;100.00
42591;BME280;28218;53.342;-6.216;2024-01-30T08:10:25;102827.03;;;3.77;100.00
42591;BME280;28218;53.342;-6.216;2024-01-30T08:12:54;102827.03;;;3.77;100.00
42591;BME280;28218;53.342;-6.216;2024-01-30T08:15:22;102833.09;;;3.77;100.00
42591;BME280;28218;53.342;-6.216;2024-01-30T08:17:50;102841.69;;;3.79;100.00
42591;BME280;28218;53.342;-6.216;2024-01-30T08:20:22;102836.38;;;3.81;100.00
42591;BME280;28218;53.342;-6.216;2024-01-30T08:22:51;102841.56;;;3.82;100.00
42591;BME280;28218;53.342;-6.216;2024-01-30T08:25:20;102842.47;;;3.81;100.00
42591;BME280;28218;53.342;-6.216;2024-01-30T08:27:48;102846.78;;;3.82;100.00
42591;BME280;28218;53.342;-6.216;2024-01-30T08:30:17;102857.97;;;3.84;100.00
42591;BME280;28218;53.342;-6.216;2024-01-30T08:32:45;102854.41;;;3.85;100.00
42591;BME280;28218;53.342;-6.216;2024-01-30T08:35:14;102868.25;;;3.88;100.00
42591;BME280;28218;53.342;-6.216;2024-01-30T08:37:43;102865.50;;;3.91;100.00
42591;BME280;28218;53.342;-6.216;2024-01-30T08:40:11;102872.41;;;3.92;100.00
42591;BME280;28218;53.342;-6.216;2024-01-30T08:42:41;102875.78;;;3.94;100.00
42591;BME280;28218;53.342;-6.216;2024-01-30T08:45:09;102880.03;;;3.96;100.00
42591;BME280;28218;53.342;-6.216;2024-01-30T08:47:38;102873.13;;;3.95;100.00
42591;BME280;28218;53.342;-6.216;2024-01-30T08:50:07;102874.09;;;3.93;100.00
42591;BME280;28218;53.342;-6.216;2024-01-30T08:52:38;102880.94;;;3.95;100.00
42591;BME280;28218;53.342;-6.216;2024-01-30T08:55:07;102881.09;;;3.92;100.00
42591;BME280;28218;53.342;-6.216;2024-01-30T08:57:36;102874.84;;;3.95;100.00
42591;BME280;28218;53.342;-6.216;2024-01-30T09:00:07;102880.16;;;3.93;100.00
42591;BME280;28218;53.342;-6.216;2024-01-30T09:02:36;102879.19;;;3.96;100.00
42591;BME280;28218;53.342;-6.216;2024-01-30T09:05:05;102879.00;;;3.99;100.00
42591;BME280;28218;53.342;-6.216;2024-01-30T09:07:34;102880.69;;;4.00;100.00
42591;BME280;28218;53.342;-6.216;2024-01-30T09:10:02;102891.00;;;4.03;100.00
42591;BME280;28218;53.342;-6.216;2024-01-30T09:12:31;102886.41;;;4.08;100.00
42591;BME280;28218;53.342;-6.216;2024-01-30T09:14:59;102888.75;;;4.14;100.00
42591;BME280;28218;53.342;-6.216;2024-01-30T09:17:29;102898.03;;;4.20;100.00
42591;BME280;28218;53.342;-6.216;2024-01-30T09:19:57;102892.66;;;4.23;100.00
42591;BME280;28218;53.342;-6.216;2024-01-30T09:22:26;102908.03;;;4.29;100.00
42591;BME280;28218;53.342;-6.216;2024-01-30T09:24:54;102914.81;;;4.33;100.00
42591;BME280;28218;53.342;-6.216;2024-01-30T09:27:22;102917.94;;;4.40;100.00
42591;BME280;28218;53.342;-6.216;2024-01-30T09:29:51;102920.44;;;4.43;100.00
42591;BME280;28218;53.342;-6.216;2024-01-30T09:32:19;102925.25;;;4.50;100.00
42591;BME280;28218;53.342;-6.216;2024-01-30T09:34:48;102926.72;;;4.56;100.00
42591;BME280;28218;53.342;-6.216;2024-01-30T09:37:17;102930.72;;;4.63;100.00
42591;BME280;28218;53.342;-6.216;2024-01-30T09:39:45;102930.28;;;4.72;100.00
42591;BME280;28218;53.342;-6.216;2024-01-30T09:42:19;102932.34;;;4.83;100.00
42591;BME280;28218;53.342;-6.216;2024-01-30T09:44:50;102935.44;;;4.91;100.00
42591;BME280;28218;53.342;-6.216;2024-01-30T09:47:19;102929.84;;;4.99;100.00
42591;BME280;28218;53.342;-6.216;2024-01-30T09:49:49;102933.66;;;5.09;100.00
42591;BME280;28218;53.342;-6.216;2024-01-30T09:52:20;102937.34;;;5.22;100.00
42591;BME280;28218;53.342;-6.216;2024-01-30T09:54:51;102937.84;;;5.29;100.00
42591;BME280;28218;53.342;-6.216;2024-01-30T09:57:20;102939.44;;;5.31;100.00
42591;BME280;28218;53.342;-6.216;2024-01-30T09:59:49;102931.13;;;5.41;100.00
42591;BME280;28218;53.342;-6.216;2024-01-30T10:02:19;102936.81;;;5.49;100.00
42591;BME280;28218;53.342;-6.216;2024-01-30T10:04:49;102934.63;;;5.57;100.00
42591;BME280;28218;53.342;-6.216;2024-01-30T10:07:18;102935.16;;;5.63;100.00
42591;BME280;28218;53.342;-6.216;2024-01-30T10:09:47;102941.91;;;5.68;100.00
42591;BME280;28218;53.342;-6.216;2024-01-30T10:12:16;102945.06;;;5.74;100.00
42591;BME280;28218;53.342;-6.216;2024-01-30T10:14:44;102939.50;;;5.80;100.00
42591;BME280;28218;53.342;-6.216;2024-01-30T10:17:12;102944.56;;;5.83;100.00
42591;BME280;28218;53.342;-6.216;2024-01-30T10:19:55;102946.16;;;5.86;100.00
42591;BME280;28218;53.342;-6.216;2024-01-30T10:22:26;102933.75;;;5.89;100.00
42591;BME280;28218;53.342;-6.216;2024-01-30T10:24:54;102937.00;;;5.95;100.00
42591;BME280;28218;53.342;-6.216;2024-01-30T10:27:25;102938.59;;;5.97;100.00
42591;BME280;28218;53.342;-6.216;2024-01-30T10:29:54;102934.81;;;6.03;100.00
42591;BME280;28218;53.342;-6.216;2024-01-30T10:32:22;102942.47;;;6.06;100.00
42591;BME280;28218;53.342;-6.216;2024-01-30T10:34:50;102942.22;;;6.10;100.00
42591;BME280;28218;53.342;-6.216;2024-01-30T10:37:25;102953.97;;;6.19;100.00
42591;BME280;28218;53.342;-6.216;2024-01-30T10:39:54;102953.81;;;6.22;100.00
42591;BME280;28218;53.342;-6.216;2024-01-30T10:42:26;102953.44;;;6.28;100.00
42591;BME280;28218;53.342;-6.216;2024-01-30T10:45:00;102951.41;;;6.33;100.00
42591;BME280;28218;53.342;-6.216;2024-01-30T10:47:30;102943.16;;;6.41;100.00
42591;BME280;28218;53.342;-6.216;2024-01-30T10:49:59;102946.25;;;6.48;100.00
42591;BME280;28218;53.342;-6.216;2024-01-30T10:52:29;102959.75;;;6.56;100.00
42591;BME280;28218;53.342;-6.216;2024-01-30T10:54:58;102957.63;;;6.62;100.00
42591;BME280;28218;53.342;-6.216;2024-01-30T10:57:27;102951.97;;;6.70;100.00
42591;BME280;28218;53.342;-6.216;2024-01-30T10:59:57;102959.38;;;6.78;100.00
42591;BME280;28218;53.342;-6.216;2024-01-30T11:02:27;102958.84;;;6.87;100.00
42591;BME280;28218;53.342;-6.216;2024-01-30T11:04:57;102953.03;;;6.96;100.00
42591;BME280;28218;53.342;-6.216;2024-01-30T11:07:29;102944.19;;;6.99;100.00
42591;BME280;28218;53.342;-6.216;2024-01-30T11:10:01;102965.88;;;7.01;100.00
42591;BME280;28218;53.342;-6.216;2024-01-30T11:12:30;102965.53;;;7.07;100.00
42591;BME280;28218;53.342;-6.216;2024-01-30T11:15:05;102963.50;;;7.12;100.00
42591;BME280;28218;53.342;-6.216;2024-01-30T11:17:47;102967.63;;;7.16;100.00
42591;BME280;28218;53.342;-6.216;2024-01-30T11:20:20;102968.47;;;7.16;100.00
42591;BME280;28218;53.342;-6.216;2024-01-30T11:22:51;102972.94;;;7.14;100.00
42591;BME280;28218;53.342;-6.216;2024-01-30T11:25:20;102970.16;;;7.17;100.00
42591;BME280;28218;53.342;-6.216;2024-01-30T11:27:50;102972.66;;;7.19;100.00
42591;BME280;28218;53.342;-6.216;2024-01-30T11:30:22;102984.38;;;7.13;100.00
42591;BME280;28218;53.342;-6.216;2024-01-30T11:33:01;102976.19;;;7.04;100.00
42591;BME280;28218;53.342;-6.216;2024-01-30T11:35:32;102981.44;;;7.04;100.00
42591;BME280;28218;53.342;-6.216;2024-01-30T11:38:04;102979.34;;;6.95;100.00
42591;BME280;28218;53.342;-6.216;2024-01-30T11:40:34;102987.59;;;6.88;100.00
42591;BME280;28218;53.342;-6.216;2024-01-30T11:43:04;102980.66;;;6.87;100.00
42591;BME280;28218;53.342;-6.216;2024-01-30T11:45:34;102986.75;;;6.88;100.00
42591;BME280;28218;53.342;-6.216;2024-01-30T11:48:03;102980.66;;;6.87;100.00
42591;BME280;28218;53.342;-6.216;2024-01-30T11:50:33;102990.31;;;6.87;100.00
42591;BME280;28218;53.342;-6.216;2024-01-30T11:53:04;102986.91;;;6.85;100.00
42591;BME280;28218;53.342;-6.216;2024-01-30T11:55:33;102984.44;;;6.82;100.00
42591;BME280;28218;53.342;-6.216;2024-01-30T11:58:03;102981.19;;;6.78;100.00
42591;BME280;28218;53.342;-6.216;2024-01-30T12:00:33;102981.19;;;6.78;100.00
42591;BME280;28218;53.342;-6.216;2024-01-30T12:03:03;102980.41;;;6.76;100.00
42591;BME280;28218;53.342;-6.216;2024-01-30T12:05:33;102966.56;;;6.74;100.00
42591;BME280;28218;53.342;-6.216;2024-01-30T12:08:04;102960.56;;;6.72;100.00
42591;BME280;28218;53.342;-6.216;2024-01-30T12:10:33;102960.75;;;6.69;100.00
42591;BME280;28218;53.342;-6.216;2024-01-30T12:13:02;102957.19;;;6.70;100.00
42591;BME280;28218;53.342;-6.216;2024-01-30T12:15:31;102962.78;;;6.64;100.00
42591;BME280;28218;53.342;-6.216;2024-01-30T12:18:05;102952.31;;;6.64;100.00
42591;BME280;28218;53.342;-6.216;2024-01-30T12:20:34;102949.03;;;6.60;100.00
42591;BME280;28218;53.342;-6.216;2024-01-30T12:23:05;102949.28;;;6.56;100.00
42591;BME280;28218;53.342;-6.216;2024-01-30T12:25:33;102938.81;;;6.56;100.00
42591;BME280;28218;53.342;-6.216;2024-01-30T12:28:02;102938.03;;;6.54;100.00
42591;BME280;28218;53.342;-6.216;2024-01-30T12:30:30;102931.31;;;6.50;100.00
42591;BME280;28218;53.342;-6.216;2024-01-30T12:33:00;102933.00;;;6.51;100.00
42591;BME280;28218;53.342;-6.216;2024-01-30T12:35:28;102924.94;;;6.54;100.00
42591;BME280;28218;53.342;-6.216;2024-01-30T12:37:59;102931.53;;;6.61;100.00
42591;BME280;28218;53.342;-6.216;2024-01-30T12:40:29;102924.25;;;6.66;100.00
42591;BME280;28218;53.342;-6.216;2024-01-30T12:43:03;102921.97;;;6.90;100.00
42591;BME280;28218;53.342;-6.216;2024-01-30T12:45:31;102917.78;;;7.02;100.00
42591;BME280;28218;53.342;-6.216;2024-01-30T12:48:00;102913.59;;;7.13;100.00
42591;BME280;28218;53.342;-6.216;2024-01-30T12:50:28;102907.13;;;7.19;100.00